Time;durP1;ratioP1;P1;durP2;ratioP2;P2;SDS_P1;SDS_P2;PMS_P1;PMS_P2;Temp;Humidity;BMP_temperature;BMP_pressure;BME280_temperature;BME280_humidity;BME280_pressure;Samples;Min_cycle;Max_cycle;Signal;HPM_P1;HPM_P2
2021/01/31 00:00:49;;;;;;;48.58;26.07;;;;;;;-4.36;65.17;99350.11;127933;1103;24629;-78
2021/01/31 00:03:22;;;;;;;52.08;26.68;;;;;;;-4.39;65.37;99352.87;127886;1103;22523;-77
2021/01/31 00:05:52;;;;;;;;;;;;;;;-4.48;65.35;99348.30;127573;1105;22554;-77
2021/01/31 00:08:23;;;;;;;49.33;28.77;;;;;;;-4.57;65.53;99347.12;127902;1105;21440;-78
2021/01/31 00:10:53;;;;;;;55.90;29.60;;;;;;;-4.59;65.70;99352.38;127848;1102;22648;-78
2021/01/31 00:13:24;;;;;;;59.25;30.08;;;;;;;-4.59;66.00;99352.38;127923;1104;23348;-77
2021/01/31 00:15:53;;;;;;;54.48;29.32;;;;;;;-4.64;65.97;99354.41;127895;1102;25109;-77
2021/01/31 00:18:26;;;;;;;49.10;27.17;;;;;;;-4.66;65.94;99360.60;127906;1103;24470;-77
2021/01/31 00:20:57;;;;;;;45.85;26.40;;;;;;;-4.71;65.89;99358.30;127953;1104;22669;-77
2021/01/31 00:23:27;;;;;;;46.60;27.00;;;;;;;-4.75;66.18;99355.08;127922;1103;22524;-78
2021/01/31 00:25:59;;;;;;;48.05;25.77;;;;;;;-4.78;65.91;99357.02;127877;1105;22502;-78
2021/01/31 00:28:27;;;;;;;51.18;28.30;;;;;;;-4.83;66.35;99353.89;127891;1103;22561;-76
2021/01/31 00:30:56;;;;;;;61.33;33.63;;;;;;;-4.93;65.58;99355.38;127894;1105;22505;-77
2021/01/31 00:33:28;;;;;;;54.30;30.47;;;;;;;-5.04;65.60;99362.02;127913;1103;22557;-77
2021/01/31 00:35:57;;;;;;;59.17;31.23;;;;;;;-5.14;65.58;99360.92;127727;1105;22524;-77
2021/01/31 00:38:27;;;;;;;57.55;34.25;;;;;;;-5.23;65.72;99370.05;127924;1104;22525;-77
2021/01/31 00:40:56;;;;;;;68.92;34.80;;;;;;;-5.29;65.57;99367.01;127878;1102;22524;-76
2021/01/31 00:43:24;;;;;;;64.92;31.87;;;;;;;-5.36;65.81;99369.12;127880;1102;25366;-76
2021/01/31 00:45:56;;;;;;;61.68;30.80;;;;;;;-5.41;65.90;99365.16;127445;1105;22521;-76
2021/01/31 00:48:25;;;;;;;54.25;29.75;;;;;;;-5.49;65.90;99363.86;127920;1103;22543;-76
2021/01/31 00:50:53;;;;;;;55.15;31.48;;;;;;;-5.54;65.73;99371.02;127871;1103;22521;-76
2021/01/31 00:53:22;;;;;;;52.73;29.90;;;;;;;-5.56;66.12;99384.91;127900;1104;22524;-76
2021/01/31 00:55:54;;;;;;;;;;;;;;;-5.63;66.09;99375.86;127758;1104;22522;-76
2021/01/31 00:58:29;;;;;;;63.17;31.57;;;;;;;-5.73;66.43;99381.56;127861;1104;21310;-76
2021/01/31 01:00:58;;;;;;;68.22;34.30;;;;;;;-5.73;66.61;99386.71;127872;1103;24597;-76
2021/01/31 01:03:27;;;;;;;55.20;28.55;;;;;;;-5.70;66.86;99385.69;127876;1102;22524;-76
2021/01/31 01:06:02;;;;;;;53.83;29.15;;;;;;;-5.67;67.01;99393.23;127496;1102;22605;-76
2021/01/31 01:08:31;;;;;;;62.83;30.68;;;;;;;-5.65;67.12;99391.41;127870;1105;22523;-76
2021/01/31 01:11:00;;;;;;;56.68;31.73;;;;;;;-5.62;67.13;99400.70;127410;1105;22555;-76
2021/01/31 01:13:28;;;;;;;57.40;30.10;;;;;;;-5.59;67.41;99401.34;127598;1104;22780;-77
2021/01/31 01:15:56;;;;;;;53.38;28.77;;;;;;;-5.57;67.38;99409.78;127923;1102;23485;-78
2021/01/31 01:18:24;;;;;;;49.75;28.70;;;;;;;-5.55;67.47;99412.29;127915;1103;22516;-77
2021/01/31 01:20:53;;;;;;;53.40;31.15;;;;;;;-5.56;67.37;99421.76;127489;1104;22523;-77
2021/01/31 01:23:21;;;;;;;55.00;29.87;;;;;;;-5.56;67.32;99421.76;127891;1104;22560;-78
2021/01/31 01:25:49;;;;;;;52.48;28.75;;;;;;;-5.55;67.38;99414.86;127924;1103;22608;-77
2021/01/31 01:28:17;;;;;;;59.25;28.45;;;;;;;-5.57;67.17;99411.53;127898;1104;23454;-77
2021/01/31 01:30:46;;;;;;;63.52;29.82;;;;;;;-5.63;67.20;99405.02;127906;1104;22905;-77
2021/01/31 01:33:14;;;;;;;61.90;31.83;;;;;;;-5.70;66.85;99412.27;127880;1104;22546;-77
2021/01/31 01:35:42;;;;;;;60.60;31.00;;;;;;;-5.79;66.71;99410.21;127918;1104;22604;-76
2021/01/31 01:38:10;;;;;;;54.88;30.45;;;;;;;-5.86;66.68;99413.20;127512;1105;22554;-76
2021/01/31 01:40:40;;;;;;;60.15;30.55;;;;;;;-5.94;66.66;99411.92;127925;1103;22523;-77
2021/01/31 01:43:19;;;;;;;53.75;30.48;;;;;;;-6.02;66.67;99408.14;127898;1105;22551;-77
2021/01/31 01:46:18;;;;;;;63.60;30.90;;;;;;;-6.12;66.62;99407.83;127493;1105;22520;-76
2021/01/31 01:48:59;;;;;;;62.43;32.07;;;;;;;-6.26;66.39;99411.16;127599;1105;22521;-77
2021/01/31 01:51:54;;;;;;;58.25;31.60;;;;;;;-6.36;66.46;99410.02;127904;1104;22595;-77
2021/01/31 01:54:34;;;;;;;70.67;34.78;;;;;;;-6.48;66.38;99406.36;127896;1103;22554;-77
2021/01/31 01:57:14;;;;;;;75.25;37.38;;;;;;;-6.54;66.58;99411.00;127931;1105;24632;-77
2021/01/31 01:59:44;;;;;;;63.63;34.27;;;;;;;-6.62;66.65;99405.46;127591;1105;24709;-77
2021/01/31 02:02:24;;;;;;;70.67;35.08;;;;;;;-6.67;66.93;99406.52;127893;1105;22608;-77
2021/01/31 02:04:53;;;;;;;65.03;32.63;;;;;;;-6.72;66.70;99407.69;127533;1105;25135;-77
2021/01/31 02:07:21;;;;;;;59.58;29.65;;;;;;;-6.78;67.12;99397.73;127870;1104;22885;-76
2021/01/31 02:09:51;;;;;;;68.85;34.92;;;;;;;-6.83;66.72;99408.27;127509;1105;25106;-77
2021/01/31 02:12:23;;;;;;;67.92;31.75;;;;;;;-6.89;66.82;99404.27;127855;1103;25943;-77
2021/01/31 02:14:55;;;;;;;60.48;30.52;;;;;;;-6.95;66.97;99407.16;127882;1104;24385;-77
2021/01/31 02:18:07;;;;;;;65.00;32.40;;;;;;;-6.99;67.28;99402.28;127948;1103;23454;-77
2021/01/31 02:21:07;;;;;;;68.22;31.40;;;;;;;-7.06;67.39;99398.34;127864;1105;23526;-76
2021/01/31 02:24:15;;;;;;;53.13;29.00;;;;;;;-7.14;67.41;99398.75;127935;1105;22499;-77
2021/01/31 02:27:28;;;;;;;65.83;33.13;;;;;;;-7.24;66.94;99400.96;127945;1103;22530;-77
2021/01/31 02:30:17;;;;;;;60.65;29.45;;;;;;;-7.34;67.19;99399.78;127858;1104;22653;-77
2021/01/31 02:33:08;;;;;;;57.25;29.05;;;;;;;-7.39;67.63;99394.89;127866;1103;22524;-76
2021/01/31 02:35:43;;;;;;;61.50;29.10;;;;;;;-7.43;67.62;99407.93;127885;1102;22503;-77
2021/01/31 02:38:26;;;;;;;61.75;32.05;;;;;;;-7.49;67.43;99401.39;127581;1104;22648;-77
2021/01/31 02:41:13;;;;;;;65.83;32.65;;;;;;;-7.52;67.25;99406.67;127474;1105;22555;-77
2021/01/31 02:43:51;;;;;;;66.27;32.50;;;;;;;-7.55;67.97;99411.13;127909;1103;24999;-77
2021/01/31 02:46:42;;;;;;;69.58;33.35;;;;;;;-7.57;67.72;99413.76;127424;1104;22637;-77
2021/01/31 02:49:21;;;;;;;65.47;35.92;;;;;;;-7.60;67.85;99404.50;127918;1105;22527;-77
2021/01/31 02:51:58;;;;;;;70.95;32.58;;;;;;;-7.60;67.80;99407.07;127879;1103;25118;-77
2021/01/31 02:55:03;;;;;;;68.22;33.13;;;;;;;-7.61;67.89;99402.00;127893;1105;22544;-77
2021/01/31 02:57:43;;;;;;;71.72;33.78;;;;;;;-7.66;67.94;99404.80;127898;1104;22521;-77
2021/01/31 03:00:14;;;;;;;80.32;38.38;;;;;;;-7.68;68.18;99406.60;127902;1103;22558;-76
2021/01/31 03:02:58;;;;;;;94.62;40.48;;;;;;;-7.71;67.99;99400.80;127900;1104;22659;-76
2021/01/31 03:05:34;;;;;;;86.05;42.40;;;;;;;-7.74;67.81;99400.95;127521;1105;22404;-76
2021/01/31 03:08:23;;;;;;;82.30;39.73;;;;;;;-7.78;68.08;99407.14;127916;1102;22648;-78
2021/01/31 03:11:37;;;;;;;82.00;39.42;;;;;;;-7.85;68.21;99409.17;127485;1103;25186;-77
2021/01/31 03:14:14;;;;;;;91.57;40.45;;;;;;;-7.91;68.15;99402.60;127299;1105;25202;-78
2021/01/31 03:16:54;;;;;;;88.90;39.73;;;;;;;-7.95;68.11;99406.22;127442;1107;25259;-78
2021/01/31 03:19:47;;;;;;;78.87;38.70;;;;;;;-7.98;68.04;99401.24;127353;1106;22716;-78
2021/01/31 03:22:26;;;;;;;;;;;;;;;-8.06;67.65;99400.80;127389;1106;22537;-78
2021/01/31 03:25:01;;;;;;;92.65;42.65;;;;;;;-8.15;68.33;99402.05;127383;1108;21367;-78
2021/01/31 03:27:37;;;;;;;95.38;44.83;;;;;;;-8.16;67.96;99405.53;127507;1105;22528;-78
2021/01/31 03:30:11;;;;;;;95.28;44.93;;;;;;;-8.17;68.29;99414.09;127386;1108;22549;-78
2021/01/31 03:32:49;;;;;;;91.55;48.87;;;;;;;-8.17;68.64;99418.40;127364;1108;22589;-78
2021/01/31 03:35:23;;;;;;;104.23;45.52;;;;;;;-8.20;68.21;99419.37;127442;1106;22554;-77
2021/01/31 03:38:00;;;;;;;104.53;46.70;;;;;;;-8.20;68.20;99421.10;127353;1105;24610;-77
2021/01/31 03:40:30;;;;;;;100.97;45.45;;;;;;;-8.23;68.46;99416.98;127406;1107;22651;-76
2021/01/31 03:42:58;;;;;;;106.95;49.75;;;;;;;-8.24;68.49;99420.42;127408;1107;22556;-76
2021/01/31 03:45:32;;;;;;;116.03;49.42;;;;;;;-8.28;68.35;99426.59;127363;1106;22544;-76
2021/01/31 03:48:21;;;;;;;110.50;50.58;;;;;;;-8.34;68.28;99426.88;127178;1105;22535;-76
2021/01/31 03:50:49;;;;;;;118.28;51.45;;;;;;;-8.39;67.92;99434.82;127853;1102;22502;-76
2021/01/31 03:53:17;;;;;;;130.12;55.52;;;;;;;-8.41;68.62;99443.47;127482;1105;24701;-76
2021/01/31 03:55:47;;;;;;;135.82;51.77;;;;;;;-8.43;68.16;99446.11;127906;1105;22512;-76
2021/01/31 03:58:18;;;;;;;122.20;54.73;;;;;;;-8.45;68.44;99449.64;127574;1102;22558;-76
2021/01/31 04:00:58;;;;;;;121.87;52.03;;;;;;;-8.49;68.34;99448.12;127890;1103;22554;-76
2021/01/31 04:03:39;;;;;;;115.28;53.08;;;;;;;-8.50;68.53;99451.56;127919;1104;22521;-77
2021/01/31 04:06:17;;;;;;;117.47;53.90;;;;;;;-8.50;68.58;99457.52;127525;1104;22524;-77
2021/01/31 04:08:53;;;;;;;119.35;53.52;;;;;;;-8.52;68.56;99453.38;127927;1104;22651;-77
2021/01/31 04:11:41;;;;;;;109.67;51.55;;;;;;;-8.54;68.84;99456.83;127506;1105;22648;-76
2021/01/31 04:14:19;;;;;;;108.47;51.77;;;;;;;-8.55;68.90;99459.47;127472;1105;22553;-76
2021/01/31 04:16:49;;;;;;;100.65;48.60;;;;;;;-8.57;68.52;99458.70;127883;1105;24379;-76
2021/01/31 04:19:20;;;;;;;94.97;45.40;;;;;;;-8.57;68.99;99464.64;127784;1104;22521;-76
2021/01/31 04:21:48;;;;;;;95.07;47.10;;;;;;;-8.57;69.02;99462.08;127548;1105;22716;-78
2021/01/31 04:24:17;;;;;;;119.80;48.38;;;;;;;-8.55;69.00;99454.34;127993;1105;24382;-76
2021/01/31 04:26:45;;;;;;;91.78;42.35;;;;;;;-8.56;68.66;99453.52;127892;1104;22527;-76
2021/01/31 04:29:13;;;;;;;112.95;50.23;;;;;;;-8.55;68.96;99457.73;127427;1105;22520;-75
2021/01/31 04:31:42;;;;;;;108.50;49.08;;;;;;;-8.55;68.75;99467.98;127569;1102;22555;-76
2021/01/31 04:34:10;;;;;;;86.12;43.28;;;;;;;-8.56;68.94;99458.64;127508;1104;24645;-76
2021/01/31 04:36:38;;;;;;;98.42;47.58;;;;;;;-8.57;68.88;99451.02;127927;1104;22560;-76
2021/01/31 04:39:06;;;;;;;98.15;45.73;;;;;;;-8.59;68.90;99453.66;127921;1102;22553;-76
2021/01/31 04:41:41;;;;;;;100.72;46.28;;;;;;;-8.60;68.80;99467.34;127748;1102;24606;-76
2021/01/31 04:44:16;;;;;;;108.32;49.27;;;;;;;-8.62;68.48;99466.59;127914;1103;25138;-76
2021/01/31 04:46:53;;;;;;;105.95;47.60;;;;;;;-8.59;68.92;99469.02;127469;1105;22529;-76
2021/01/31 04:49:49;;;;;;;88.90;44.93;;;;;;;-8.56;69.08;99468.06;127493;1104;23003;-77
2021/01/31 04:52:44;;;;;;;98.90;49.03;;;;;;;-8.54;69.06;99469.63;127897;1104;22645;-76
2021/01/31 04:55:35;;;;;;;121.35;61.63;;;;;;;-8.54;69.43;99469.63;127860;1104;22520;-76
2021/01/31 04:58:15;;;;;;;122.42;62.25;;;;;;;-8.49;69.61;99474.56;127886;1104;22521;-77
2021/01/31 05:01:22;;;;;;;120.65;62.15;;;;;;;-8.43;69.61;99478.55;127520;1105;22553;-76
2021/01/31 05:04:04;;;;;;;120.75;63.42;;;;;;;-8.38;69.64;99484.31;127886;1105;22525;-76
2021/01/31 05:06:45;;;;;;;120.05;66.82;;;;;;;-8.30;69.95;99484.75;127889;1102;24699;-77
2021/01/31 05:09:19;;;;;;;133.97;69.23;;;;;;;-8.23;69.85;99487.86;127575;1103;22624;-77
2021/01/31 05:11:57;;;;;;;133.30;66.45;;;;;;;-8.17;69.50;99496.09;127479;1103;25151;-76
2021/01/31 05:14:28;;;;;;;122.45;62.35;;;;;;;-8.14;69.66;99487.44;127940;1104;22551;-77
2021/01/31 05:16:57;;;;;;;101.38;57.03;;;;;;;-8.12;69.69;99491.60;127939;1105;24356;-76
2021/01/31 05:19:30;;;;;;;109.05;58.35;;;;;;;-8.05;69.74;99494.71;127512;1105;22557;-76
2021/01/31 05:21:59;;;;;;;113.47;57.20;;;;;;;-8.02;70.02;99501.44;127586;1105;22569;-76
2021/01/31 05:24:28;;;;;;;101.00;55.43;;;;;;;-7.99;69.69;99494.43;127961;1104;24398;-76
2021/01/31 05:27:04;;;;;;;110.85;58.13;;;;;;;-7.96;69.96;99501.98;127899;1105;23452;-76
2021/01/31 05:29:40;;;;;;;110.60;58.90;;;;;;;-7.94;69.88;99501.89;127892;1103;22642;-75
2021/01/31 05:32:16;;;;;;;130.00;66.43;;;;;;;-7.91;70.08;99504.31;127940;1104;22548;-76
2021/01/31 05:34:50;;;;;;;265.70;149.90;;;;;;;-7.91;69.84;99512.01;127956;1103;22527;-76
2021/01/31 05:37:27;;;;;;;181.32;93.27;;;;;;;-7.89;69.82;99511.04;128098;1103;24300;-76
2021/01/31 05:40:01;;;;;;;148.40;74.50;;;;;;;-7.88;69.88;99514.43;127939;1104;22692;-77
2021/01/31 05:42:40;;;;;;;149.45;74.65;;;;;;;-7.88;69.42;99515.25;127965;1104;22526;-76
2021/01/31 05:45:31;;;;;;;153.80;78.40;;;;;;;-7.88;69.68;99517.81;127525;1103;22523;-76
2021/01/31 05:48:19;;;;;;;383.87;170.17;;;;;;;-7.84;69.92;99514.20;127945;1104;22560;-77
2021/01/31 05:50:47;;;;;;;202.95;90.60;;;;;;;-7.79;70.35;99515.73;127883;1104;23966;-76
2021/01/31 05:53:36;;;;;;;153.07;73.10;;;;;;;-7.78;69.86;99523.34;127538;1105;24610;-76
2021/01/31 05:56:29;;;;;;;150.22;71.50;;;;;;;-7.76;69.94;99521.55;127943;1103;24373;-76
2021/01/31 05:59:00;;;;;;;146.20;70.47;;;;;;;-7.77;69.90;99513.91;127989;1102;22518;-76
2021/01/31 06:01:28;;;;;;;150.85;72.85;;;;;;;-7.77;70.03;99525.00;127930;1102;22514;-76
2021/01/31 06:04:15;;;;;;;127.12;66.57;;;;;;;-7.76;69.78;99529.25;127627;1104;24297;-77
2021/01/31 06:06:45;;;;;;;149.18;71.77;;;;;;;-7.76;69.89;99520.70;128001;1104;22555;-77
2021/01/31 06:09:33;;;;;;;126.85;69.03;;;;;;;-7.77;69.97;99519.87;128008;1104;22636;-77
2021/01/31 06:12:23;;;;;;;128.65;68.97;;;;;;;-7.77;69.58;99524.17;127986;1103;22709;-76
2021/01/31 06:15:25;;;;;;;133.15;70.60;;;;;;;-7.81;69.71;99524.31;127906;1103;22627;-77
2021/01/31 06:17:59;;;;;;;;;;;;;;;-7.86;69.47;99530.58;127976;1103;22548;-75
2021/01/31 06:20:37;;;;;;;139.07;71.67;;;;;;;-7.91;69.61;99530.78;127981;1102;21296;-74
2021/01/31 06:23:16;;;;;;;292.40;117.65;;;;;;;-7.91;69.66;99528.22;127564;1105;25155;-74
2021/01/31 06:25:44;;;;;;;197.70;88.47;;;;;;;-7.92;70.20;99539.38;127948;1102;23222;-74
2021/01/31 06:28:18;;;;;;;176.10;85.90;;;;;;;-7.87;70.49;99539.98;127578;1103;22534;-74
2021/01/31 06:31:11;;;;;;;173.00;89.62;;;;;;;-7.85;70.02;99547.62;127591;1105;22515;-74
2021/01/31 06:33:42;;;;;;;166.50;86.35;;;;;;;-7.89;69.95;99554.62;127953;1104;22605;-74
2021/01/31 06:36:38;;;;;;;161.37;82.33;;;;;;;-7.91;70.24;99553.85;127916;1102;22772;-75
2021/01/31 06:39:20;;;;;;;217.35;104.47;;;;;;;-7.89;70.31;99551.23;127925;1104;22548;-74
2021/01/31 06:41:57;;;;;;;197.95;97.10;;;;;;;-7.86;70.41;99551.92;127884;1102;24447;-74
2021/01/31 06:44:49;;;;;;;206.70;101.25;;;;;;;-7.88;70.35;99558.84;127969;1103;22527;-75
2021/01/31 06:48:05;;;;;;;166.07;85.15;;;;;;;-7.91;70.17;99553.85;127933;1105;22552;-74
2021/01/31 06:51:03;;;;;;;157.72;81.70;;;;;;;-7.78;71.29;99568.67;127566;1106;25163;-76
2021/01/31 06:53:55;;;;;;;148.10;79.37;;;;;;;-7.64;71.07;99567.11;126995;1108;22665;-75
2021/01/31 06:56:56;;;;;;;161.07;84.13;;;;;;;-7.50;71.29;99563.06;127368;1108;22546;-75
2021/01/31 07:00:05;;;;;;;139.03;69.47;;;;;;;-7.43;71.05;99567.84;127329;1106;22546;-75
2021/01/31 07:02:51;;;;;;;143.90;73.45;;;;;;;-7.28;71.53;99568.83;127381;1108;22544;-76
2021/01/31 07:05:53;;;;;;;135.30;70.47;;;;;;;-7.14;71.42;99571.55;127338;1106;22641;-75
2021/01/31 07:08:48;;;;;;;138.03;70.03;;;;;;;-7.02;71.70;99571.88;126953;1110;24678;-75
2021/01/31 07:11:35;;;;;;;199.05;114.67;;;;;;;-6.93;71.10;99572.25;126889;1111;22627;-75
2021/01/31 07:14:54;;;;;;;222.00;130.63;;;;;;;-6.84;71.18;99572.68;126914;1109;22553;-74
2021/01/31 07:17:31;;;;;;;166.20;87.37;;;;;;;-6.69;71.32;99577.05;126890;1109;22981;-74
2021/01/31 07:20:22;;;;;;;153.80;84.32;;;;;;;-6.54;71.48;99573.69;126884;1109;22574;-75
2021/01/31 07:23:11;;;;;;;183.25;94.65;;;;;;;-6.40;71.42;99580.68;126852;1111;22570;-75
2021/01/31 07:25:45;;;;;;;199.77;99.58;;;;;;;-6.29;71.20;99582.72;126890;1109;22536;-75
2021/01/31 07:28:25;;;;;;;170.28;88.65;;;;;;;-6.20;71.46;99580.50;127225;1107;22647;-76
2021/01/31 07:31:12;;;;;;;203.32;96.45;;;;;;;-6.07;71.56;99583.22;127387;1107;24434;-75
2021/01/31 07:33:47;;;;;;;151.47;81.05;;;;;;;-5.91;71.65;99585.78;126987;1106;22550;-76
2021/01/31 07:36:36;;;;;;;151.82;85.53;;;;;;;-5.76;71.42;99579.82;127337;1106;22521;-76
2021/01/31 07:39:26;;;;;;;136.12;76.97;;;;;;;-5.62;71.62;99573.09;128274;1105;22499;-75
2021/01/31 07:41:57;;;;;;;147.50;77.25;;;;;;;-5.48;71.38;99589.42;127419;1108;24053;-76
2021/01/31 07:44:33;;;;;;;135.82;77.30;;;;;;;-5.37;71.47;99578.52;127197;1103;22554;-77
2021/01/31 07:47:02;;;;;;;132.80;77.50;;;;;;;-5.24;71.16;99583.81;127539;1104;22644;-77
2021/01/31 07:49:56;;;;;;;138.05;78.92;;;;;;;-5.13;71.18;99581.48;127474;1104;22633;-76
2021/01/31 07:52:26;;;;;;;135.40;77.47;;;;;;;-4.97;71.37;99587.39;127932;1104;22560;-80
2021/01/31 07:55:28;;;;;;;121.77;71.42;;;;;;;-4.78;71.58;99576.03;127527;1105;22561;-78
2021/01/31 07:58:24;;;;;;;113.00;71.53;;;;;;;-4.57;71.94;99566.20;127672;1103;25056;-77
2021/01/31 08:00:55;;;;;;;111.60;63.33;;;;;;;-4.38;71.62;99571.92;127900;1103;22522;-77
2021/01/31 08:03:36;;;;;;;97.80;59.75;;;;;;;-4.19;71.58;99579.38;127714;1105;22523;-78
2021/01/31 08:06:33;;;;;;;99.47;59.33;;;;;;;-3.99;71.71;99575.59;127879;1103;22627;-77
2021/01/31 08:09:01;;;;;;;107.52;64.17;;;;;;;-3.82;71.45;99580.52;127896;1102;22550;-75
2021/01/31 08:11:29;;;;;;;104.60;64.32;;;;;;;-3.67;71.12;99572.73;127426;1105;22648;-76
2021/01/31 08:14:04;;;;;;;109.83;66.75;;;;;;;-3.58;70.86;99577.33;127959;1104;24651;-76
2021/01/31 08:16:47;;;;;;;99.50;63.92;;;;;;;-3.46;70.66;99576.56;127520;1105;22957;-76
2021/01/31 08:19:19;;;;;;;103.07;64.87;;;;;;;-3.26;70.80;99588.20;127958;1102;22648;-76
2021/01/31 08:22:12;;;;;;;110.88;68.60;;;;;;;-3.12;70.42;99589.89;127931;1105;22551;-76
2021/01/31 08:25:10;;;;;;;94.77;55.38;;;;;;;-2.97;70.27;99588.05;127546;1104;25132;-76
2021/01/31 08:27:42;;;;;;;81.80;49.97;;;;;;;-2.81;70.31;99593.05;127909;1104;22557;-76
2021/01/31 08:30:28;;;;;;;68.87;43.00;;;;;;;-2.68;70.08;99594.71;127914;1102;24376;-76
2021/01/31 08:32:59;;;;;;;68.30;45.33;;;;;;;-2.55;69.68;99597.31;127961;1104;22531;-76
2021/01/31 08:35:42;;;;;;;77.13;48.23;;;;;;;-2.42;69.57;99594.73;127970;1102;22534;-76
2021/01/31 08:38:18;;;;;;;71.55;46.88;;;;;;;-2.31;68.71;99594.00;127927;1103;22967;-76
2021/01/31 08:41:01;;;;;;;72.40;46.30;;;;;;;-2.29;67.89;99598.14;127951;1102;22624;-75
2021/01/31 08:43:31;;;;;;;95.90;54.60;;;;;;;-2.29;68.05;99597.32;127934;1103;22594;-75
2021/01/31 08:46:12;;;;;;;97.78;57.75;;;;;;;-2.05;68.37;99605.16;127596;1105;22518;-75
2021/01/31 08:48:55;;;;;;;101.38;65.50;;;;;;;-1.74;68.32;99607.25;127657;1105;23315;-74
2021/01/31 08:51:30;;;;;;;100.82;65.45;;;;;;;-1.37;68.42;99606.41;127979;1104;22528;-74
2021/01/31 08:54:09;;;;;;;76.37;50.73;;;;;;;-1.14;68.10;99613.35;127514;1103;22518;-74
2021/01/31 08:56:52;;;;;;;65.70;46.37;;;;;;;-0.83;67.67;99613.73;127894;1104;22551;-75
2021/01/31 08:59:32;;;;;;;71.82;47.73;;;;;;;-0.50;66.67;99607.77;127509;1104;22500;-76
2021/01/31 09:02:10;;;;;;;58.80;39.53;;;;;;;-0.14;66.65;99611.94;127532;1105;22555;-75
2021/01/31 09:04:46;;;;;;;56.37;37.50;;;;;;;0.05;65.63;99616.55;127890;1104;22546;-75
2021/01/31 09:07:25;;;;;;;76.90;55.25;;;;;;;0.18;64.74;99619.85;127547;1104;24382;-76
2021/01/31 09:10:40;;;;;;;350.35;223.78;;;;;;;0.34;63.71;99626.46;127529;1104;23362;-76
2021/01/31 09:13:24;;;;;;;122.15;72.27;;;;;;;0.48;63.33;99630.56;127597;1105;22630;-76
2021/01/31 09:15:54;;;;;;;52.95;35.33;;;;;;;0.59;63.68;99636.55;127521;1103;24604;-76
2021/01/31 09:18:24;;;;;;;48.80;33.90;;;;;;;0.66;63.15;99632.52;127859;1105;22521;-76
2021/01/31 09:20:52;;;;;;;55.43;35.78;;;;;;;0.87;62.73;99635.20;127542;1105;22527;-76
2021/01/31 09:23:36;;;;;;;64.15;43.30;;;;;;;1.05;62.30;99630.27;127603;1104;22517;-76
2021/01/31 09:26:05;;;;;;;50.65;34.25;;;;;;;1.23;61.39;99630.54;127498;1105;22658;-77
2021/01/31 09:28:39;;;;;;;45.67;31.87;;;;;;;1.30;61.49;99636.06;127442;1105;22561;-76
2021/01/31 09:31:08;;;;;;;43.28;29.30;;;;;;;1.36;59.95;99641.59;127935;1103;22658;-76
2021/01/31 09:33:43;;;;;;;48.52;31.75;;;;;;;1.29;59.70;99630.04;127950;1104;24367;-76
2021/01/31 09:36:23;;;;;;;54.30;36.23;;;;;;;1.16;58.28;99635.42;127620;1104;22569;-77
2021/01/31 09:38:53;;;;;;;61.10;43.28;;;;;;;1.10;58.84;99632.48;127753;1105;22528;-76
2021/01/31 09:41:26;;;;;;;55.90;38.55;;;;;;;1.11;58.78;99641.97;128129;1104;23063;-76
2021/01/31 09:44:01;;;;;;;45.33;33.38;;;;;;;1.13;59.20;99640.90;128040;1105;22535;-77
2021/01/31 09:46:30;;;;;;;41.70;28.15;;;;;;;1.13;57.81;99637.45;127857;1103;23399;-75
2021/01/31 09:49:18;;;;;;;42.58;29.32;;;;;;;1.16;57.54;99632.00;127653;1105;22498;-75
2021/01/31 09:51:47;;;;;;;41.33;29.12;;;;;;;1.17;57.63;99624.08;127985;1103;22595;-77
2021/01/31 09:54:22;;;;;;;44.60;30.02;;;;;;;1.31;57.71;99635.14;128011;1104;24604;-75
2021/01/31 09:56:56;;;;;;;39.33;27.67;;;;;;;1.36;56.82;99625.98;127638;1105;22519;-76
2021/01/31 09:59:32;;;;;;;32.93;25.27;;;;;;;1.41;57.10;99628.22;127738;1105;22660;-76
2021/01/31 10:02:22;;;;;;;46.10;31.90;;;;;;;1.52;57.47;99622.12;128057;1104;22549;-75
2021/01/31 10:04:59;;;;;;;44.45;31.07;;;;;;;1.62;57.41;99625.60;127981;1102;22530;-76
2021/01/31 10:07:35;;;;;;;39.00;28.00;;;;;;;1.69;56.61;99631.12;127993;1104;22554;-76
2021/01/31 10:10:40;;;;;;;43.73;29.72;;;;;;;1.82;57.02;99629.95;127894;1103;25010;-76
2021/01/31 10:13:32;;;;;;;45.08;31.30;;;;;;;1.93;56.74;99631.65;127882;1105;22551;-76
2021/01/31 10:16:14;;;;;;;35.30;24.67;;;;;;;2.00;55.82;99626.74;127930;1102;22521;-76
2021/01/31 10:18:42;;;;;;;37.05;22.77;;;;;;;2.04;55.77;99633.36;127912;1104;24376;-76
2021/01/31 10:21:31;;;;;;;42.98;28.90;;;;;;;2.13;55.19;99622.13;127924;1102;22538;-75
2021/01/31 10:24:26;;;;;;;39.50;23.92;;;;;;;2.19;55.22;99624.22;127917;1105;22619;-76
2021/01/31 10:27:20;;;;;;;30.37;18.27;;;;;;;2.18;55.00;99625.19;127918;1104;23176;-78
2021/01/31 10:29:51;;;;;;;26.45;18.07;;;;;;;2.25;54.41;99623.70;127844;1105;22759;-79
2021/01/31 10:32:40;;;;;;;24.27;18.92;;;;;;;2.39;54.96;99632.92;127551;1104;22514;-78
2021/01/31 10:35:47;;;;;;;24.95;17.80;;;;;;;2.55;54.06;99635.03;127932;1103;24608;-78
2021/01/31 10:38:32;;;;;;;26.50;18.12;;;;;;;2.72;53.75;99636.98;127377;1105;22993;-78
2021/01/31 10:41:01;;;;;;;29.07;17.10;;;;;;;2.99;53.78;99643.33;127511;1107;22568;-79
2021/01/31 10:43:29;;;;;;;21.90;15.95;;;;;;;3.22;54.09;99636.88;127398;1106;22554;-78
2021/01/31 10:45:57;;;;;;;58.83;42.08;;;;;;;3.52;53.94;99643.72;126999;1108;22525;-78
2021/01/31 10:48:26;;;;;;;31.05;24.12;;;;;;;3.81;52.77;99629.78;127403;1107;24606;-78
2021/01/31 10:50:54;;;;;;;40.88;29.75;;;;;;;4.13;52.76;99642.47;127375;1106;22540;-77
2021/01/31 10:53:23;;;;;;;33.60;26.55;;;;;;;4.70;52.55;99635.30;127044;1108;22522;-79
2021/01/31 10:55:51;;;;;;;72.05;59.10;;;;;;;5.11;51.54;99640.92;127357;1106;22519;-77
2021/01/31 10:58:19;;;;;;;50.40;40.60;;;;;;;5.66;51.75;99630.23;127415;1106;22721;-78
2021/01/31 11:00:47;;;;;;;32.10;24.75;;;;;;;6.71;53.46;99637.95;127385;1108;22526;-78
2021/01/31 11:03:15;;;;;;;29.75;26.10;;;;;;;7.72;51.62;99632.41;127384;1106;22554;-78
2021/01/31 11:05:43;;;;;;;37.97;33.93;;;;;;;8.62;50.11;99638.22;127326;1106;24613;-79
2021/01/31 11:08:11;;;;;;;26.85;23.22;;;;;;;9.54;48.67;99625.06;126994;1108;24363;-79
2021/01/31 11:10:40;;;;;;;26.35;19.77;;;;;;;10.19;46.32;99628.84;127444;1105;22514;-79
2021/01/31 11:13:08;;;;;;;24.15;20.35;;;;;;;10.43;43.95;99627.78;127875;1103;22547;-78
2021/01/31 11:15:36;;;;;;;25.75;22.22;;;;;;;11.10;44.62;99626.68;127569;1105;22554;-79
2021/01/31 11:18:04;;;;;;;27.60;21.60;;;;;;;11.77;42.59;99626.21;127554;1105;22514;-78
2021/01/31 11:20:32;;;;;;;28.62;24.07;;;;;;;12.23;40.40;99620.41;127891;1104;24609;-79
2021/01/31 11:23:00;;;;;;;28.00;24.07;;;;;;;12.31;39.71;99616.77;127907;1104;22531;-78
2021/01/31 11:25:28;;;;;;;24.92;22.15;;;;;;;11.91;38.04;99610.45;127532;1104;24486;-75
2021/01/31 11:27:57;;;;;;;26.65;22.40;;;;;;;10.86;37.45;99624.38;127503;1104;22552;-75
2021/01/31 11:30:29;;;;;;;29.52;24.20;;;;;;;10.04;37.44;99620.13;127940;1105;24035;-75
2021/01/31 11:32:59;;;;;;;33.40;26.57;;;;;;;9.39;38.24;99622.38;127945;1102;24610;-75
2021/01/31 11:35:28;;;;;;;25.72;20.85;;;;;;;8.41;38.59;99612.50;127905;1102;22510;-75
2021/01/31 11:37:57;;;;;;;27.22;21.42;;;;;;;7.48;38.55;99618.31;127513;1104;22516;-75
2021/01/31 11:40:26;;;;;;;23.98;20.20;;;;;;;6.67;39.40;99608.58;127532;1104;22649;-75
2021/01/31 11:42:56;;;;;;;26.35;21.12;;;;;;;5.88;40.09;99607.91;127975;1103;22525;-74
2021/01/31 11:45:27;;;;;;;28.05;21.25;;;;;;;5.06;40.65;99609.12;127963;1105;22657;-74
2021/01/31 11:47:56;;;;;;;33.78;24.05;;;;;;;4.25;40.85;99604.70;127885;1103;22509;-74
2021/01/31 11:50:24;;;;;;;30.32;22.02;;;;;;;3.71;41.24;99601.06;127900;1102;22544;-75
2021/01/31 11:52:52;;;;;;;32.17;23.35;;;;;;;3.15;42.72;99591.41;127893;1103;22510;-75
2021/01/31 11:55:21;;;;;;;28.27;21.35;;;;;;;2.70;43.64;99588.52;127932;1103;22550;-75
2021/01/31 11:57:49;;;;;;;26.87;19.02;;;;;;;2.32;43.76;99592.72;127941;1102;22510;-76